createdAt,value
2023-01-06T00:01:47.688Z,101521.03
2023-01-06T00:04:17.566Z,101528.41
2023-01-06T00:06:47.427Z,101522.94
2023-01-06T00:09:17.187Z,101527.84
2023-01-06T00:11:46.989Z,101529.97
2023-01-06T00:14:17.312Z,101523.94
2023-01-06T00:16:46.853Z,101525.25
2023-01-06T00:19:16.898Z,101521.94
2023-01-06T00:21:46.906Z,101515.03
2023-01-06T00:24:16.610Z,101519.66
2023-01-06T00:26:46.423Z,101524.78
2023-01-06T00:29:16.199Z,101529.72
2023-01-06T00:31:46.093Z,101526.38
2023-01-06T00:34:16.151Z,101525.53
2023-01-06T00:36:46.075Z,101515.44
2023-01-06T00:39:16.076Z,101513.53
2023-01-06T00:42:03.445Z,101510.22
2023-01-06T00:44:40.953Z,101516.75
2023-01-06T00:47:12.718Z,101508.22
2023-01-06T00:49:42.332Z,101504.38
2023-01-06T00:52:11.861Z,101498.09
2023-01-06T00:54:39.377Z,101507.63
2023-01-06T00:57:08.299Z,101499.41
2023-01-06T00:59:38.202Z,101505.47
2023-01-06T01:02:08.172Z,101508.53
2023-01-06T01:04:38.191Z,101516.84
2023-01-06T01:07:08.327Z,101516.94
2023-01-06T01:09:38.492Z,101518.94
2023-01-06T01:12:17.513Z,101513.34
2023-01-06T01:14:52.654Z,101511.50
2023-01-06T01:17:31.493Z,101505.28
2023-01-06T01:20:01.016Z,101507.03
2023-01-06T01:22:32.386Z,101497.84
2023-01-06T01:25:01.979Z,101490.44
2023-01-06T01:27:31.421Z,101490.53
2023-01-06T01:29:58.660Z,101496.91
2023-01-06T01:32:27.119Z,101491.78
2023-01-06T01:34:55.534Z,101493.53
2023-01-06T01:37:23.958Z,101488.97
2023-01-06T01:39:52.272Z,101492.13
2023-01-06T01:42:22.056Z,101492.91
2023-01-06T01:44:59.478Z,101498.50
2023-01-06T01:48:07.886Z,101499.63
2023-01-06T01:50:55.408Z,101491.53
2023-01-06T01:53:40.252Z,101486.97
2023-01-06T01:56:22.268Z,101488.75
2023-01-06T01:59:19.497Z,101480.06
2023-01-06T02:01:51.436Z,101482.50
2023-01-06T02:04:28.123Z,101485.59
2023-01-06T02:06:58.707Z,101471.38
2023-01-06T02:09:54.882Z,101470.84
2023-01-06T02:12:25.175Z,101465.19
2023-01-06T02:14:55.289Z,101481.91
2023-01-06T02:17:45.483Z,101478.31
2023-01-06T02:20:45.632Z,101464.34
2023-01-06T02:23:50.543Z,101457.06
2023-01-06T02:27:04.758Z,101451.09
2023-01-06T02:30:19.514Z,101457.16
2023-01-06T02:33:15.949Z,101436.59
2023-01-06T02:36:09.252Z,101437.94
2023-01-06T02:39:27.718Z,101442.75
2023-01-06T02:42:43.256Z,101439.69
2023-01-06T02:46:11.340Z,101438.91
2023-01-06T02:49:04.808Z,101434.34
2023-01-06T02:51:56.441Z,101431.31
2023-01-06T02:54:45.118Z,101424.31
2023-01-06T02:57:37.963Z,101423.09
2023-01-06T03:00:17.700Z,101420.81
2023-01-06T03:03:01.188Z,101426.78
2023-01-06T03:05:37.478Z,101429.41
2023-01-06T03:08:18.419Z,101430.78
2023-01-06T03:10:54.226Z,101422.88
2023-01-06T03:13:52.486Z,101423.03
2023-01-06T03:16:22.815Z,101424.94
2023-01-06T03:18:55.949Z,101421.53
2023-01-06T03:21:38.152Z,101409.75
2023-01-06T03:24:10.780Z,101410.41
2023-01-06T03:26:46.465Z,101406.25
2023-01-06T03:29:19.788Z,101399.91
2023-01-06T03:32:03.652Z,101395.16
2023-01-06T03:35:19.163Z,101392.75
2023-01-06T03:37:59.271Z,101390.47
2023-01-06T03:41:19.332Z,101392.81
2023-01-06T03:44:13.520Z,101377.19
2023-01-06T03:47:03.356Z,101373.88
2023-01-06T03:50:04.259Z,101370.56
2023-01-06T03:52:55.115Z,101374.09
2023-01-06T03:55:34.810Z,101365.91
2023-01-06T03:58:11.024Z,101363.72
2023-01-06T04:00:42.294Z,101366.25
2023-01-06T04:03:15.680Z,101354.19
2023-01-06T04:05:46.141Z,101354.72
2023-01-06T04:08:16.235Z,101342.91
2023-01-06T04:10:46.267Z,101348.72
2023-01-06T04:13:16.261Z,101356.66
2023-01-06T04:15:46.265Z,101353.41
2023-01-06T04:18:16.320Z,101348.44
2023-01-06T04:20:47.610Z,101363.63
2023-01-06T04:23:17.653Z,101360.63
2023-01-06T04:25:47.658Z,101353.53
2023-01-06T04:28:17.656Z,101356.06
2023-01-06T04:30:47.670Z,101354.16
2023-01-06T04:33:17.696Z,101339.00
2023-01-06T04:35:47.688Z,101332.81
2023-01-06T04:38:17.780Z,101336.72
2023-01-06T04:40:47.843Z,101325.19
2023-01-06T04:43:18.184Z,101329.56
2023-01-06T04:45:48.221Z,101323.66
2023-01-06T04:48:18.285Z,101320.91
2023-01-06T04:50:48.308Z,101323.56
2023-01-06T04:53:18.360Z,101312.03
2023-01-06T04:55:48.399Z,101310.59
2023-01-06T04:58:18.453Z,101299.59
2023-01-06T05:00:48.492Z,101297.44
2023-01-06T05:03:18.517Z,101298.06
2023-01-06T05:05:48.517Z,101286.13
2023-01-06T05:08:18.541Z,101294.00
2023-01-06T05:10:48.552Z,101290.69
2023-01-06T05:13:18.555Z,101289.66
2023-01-06T05:15:48.591Z,101277.34
2023-01-06T05:18:18.658Z,101271.78
2023-01-06T05:20:55.557Z,101285.44
2023-01-06T05:23:25.657Z,101275.78
2023-01-06T05:25:56.073Z,101274.16
2023-01-06T05:28:26.201Z,101277.97
2023-01-06T05:31:05.985Z,101264.63
2023-01-06T05:33:36.377Z,101266.25
2023-01-06T05:36:14.132Z,101266.22
2023-01-06T05:38:45.284Z,101261.53
2023-01-06T05:41:15.335Z,101252.13
2023-01-06T05:43:43.762Z,101259.78
2023-01-06T05:46:13.341Z,101253.50
2023-01-06T05:48:41.883Z,101251.06
2023-01-06T05:51:15.999Z,101245.59
2023-01-06T05:53:49.007Z,101239.31
2023-01-06T05:56:22.823Z,101237.19
2023-01-06T05:58:54.513Z,101228.41
2023-01-06T06:01:32.505Z,101233.03
2023-01-06T06:04:01.106Z,101226.97
2023-01-06T06:06:31.027Z,101233.03
2023-01-06T06:09:00.162Z,101232.72
2023-01-06T06:11:27.440Z,101228.06
2023-01-06T06:13:58.412Z,101232.22
2023-01-06T06:16:29.062Z,101233.59
2023-01-06T06:18:59.475Z,101227.31
2023-01-06T06:21:31.840Z,101224.56
2023-01-06T06:24:01.024Z,101230.06
2023-01-06T06:26:30.794Z,101226.47
2023-01-06T06:29:00.325Z,101222.09
2023-01-06T06:31:30.180Z,101216.59
2023-01-06T06:34:03.025Z,101211.13
2023-01-06T06:36:33.059Z,101209.75
2023-01-06T06:39:01.455Z,101219.91
2023-01-06T06:41:29.928Z,101213.03
2023-01-06T06:43:58.266Z,101211.69
2023-01-06T06:46:26.602Z,101204.53
2023-01-06T06:48:55.021Z,101196.03
2023-01-06T06:51:24.475Z,101194.38
2023-01-06T06:53:52.034Z,101195.47
2023-01-06T06:56:21.817Z,101197.97
2023-01-06T06:58:51.872Z,101188.38
2023-01-06T07:01:21.670Z,101190.81
2023-01-06T07:03:50.412Z,101188.66
2023-01-06T07:06:28.781Z,101189.78
2023-01-06T07:08:58.985Z,101183.44
2023-01-06T07:11:29.000Z,101177.63
2023-01-06T07:13:59.030Z,101179.84
2023-01-06T07:16:29.089Z,101173.84
2023-01-06T07:18:56.439Z,101178.22
2023-01-06T07:21:23.670Z,101182.06
2023-01-06T07:23:53.450Z,101170.22
2023-01-06T07:26:23.258Z,101172.19
2023-01-06T07:28:53.084Z,101174.13
2023-01-06T07:31:22.766Z,101177.41
2023-01-06T07:33:53.663Z,101183.19
2023-01-06T07:36:23.237Z,101187.28
2023-01-06T07:38:52.983Z,101190.88
2023-01-06T07:41:22.851Z,101190.56
2023-01-06T07:43:52.512Z,101181.53
2023-01-06T07:46:22.285Z,101178.22
2023-01-06T07:48:52.077Z,101168.59
2023-01-06T07:51:21.787Z,101168.91
2023-01-06T07:53:51.595Z,101176.88
2023-01-06T07:56:21.928Z,101182.09
2023-01-06T07:58:52.018Z,101190.03
2023-01-06T08:01:21.906Z,101190.84
2023-01-06T08:03:51.905Z,101187.28
2023-01-06T08:06:21.712Z,101188.97
2023-01-06T08:08:51.709Z,101176.28
2023-01-06T08:11:21.644Z,101173.53
2023-01-06T08:13:51.572Z,101184.00
2023-01-06T08:16:21.363Z,101167.22
2023-01-06T08:18:51.110Z,101152.94
2023-01-06T08:21:20.871Z,101162.56
2023-01-06T08:23:50.558Z,101151.53
2023-01-06T08:26:20.426Z,101163.66
2023-01-06T08:28:50.711Z,101161.44
2023-01-06T08:31:22.617Z,101160.34
2023-01-06T08:33:53.675Z,101145.75
2023-01-06T08:36:24.924Z,101141.09
2023-01-06T08:38:54.528Z,101132.00
2023-01-06T08:41:25.074Z,101146.31
2023-01-06T08:43:52.895Z,101150.16
2023-01-06T08:46:21.719Z,101148.53
2023-01-06T08:48:49.767Z,101149.06
2023-01-06T08:51:23.789Z,101149.59
2023-01-06T08:53:53.587Z,101129.50
2023-01-06T08:56:31.566Z,101128.06
2023-01-06T08:59:04.955Z,101116.47
2023-01-06T09:01:37.416Z,101107.94
2023-01-06T09:04:10.113Z,101099.09
2023-01-06T09:06:44.193Z,101095.16
2023-01-06T09:09:12.087Z,101100.72
2023-01-06T09:11:47.031Z,101116.47
2023-01-06T09:14:16.099Z,101107.66
2023-01-06T09:16:47.900Z,101118.06
2023-01-06T09:19:18.101Z,101134.56
2023-01-06T09:21:47.844Z,101140.38
2023-01-06T09:24:17.716Z,101125.78
2023-01-06T09:26:47.503Z,101123.78
2023-01-06T09:29:17.561Z,101128.50
2023-01-06T09:31:47.579Z,101119.56
2023-01-06T09:34:17.504Z,101109.38
2023-01-06T09:36:47.230Z,101104.63
2023-01-06T09:39:18.811Z,101102.41
2023-01-06T09:42:45.917Z,101101.00
2023-01-06T09:45:46.041Z,101101.19
2023-01-06T09:48:31.535Z,101092.00
2023-01-06T09:51:08.271Z,101088.09
2023-01-06T09:53:52.302Z,101082.28
2023-01-06T09:56:25.857Z,101075.97
2023-01-06T09:59:34.585Z,101074.53
2023-01-06T10:02:24.375Z,101065.72
2023-01-06T10:04:54.540Z,101052.31
2023-01-06T10:07:53.810Z,101055.72
2023-01-06T10:10:44.802Z,101058.13
2023-01-06T10:14:11.350Z,101044.81
2023-01-06T10:17:23.833Z,101031.88
2023-01-06T10:20:52.941Z,101022.16
2023-01-06T10:24:06.637Z,101024.09
2023-01-06T10:27:13.435Z,101021.53
2023-01-06T10:29:44.050Z,101010.25
2023-01-06T10:32:17.889Z,101006.66
2023-01-06T10:34:51.047Z,100999.69
2023-01-06T10:37:41.621Z,100995.66
2023-01-06T10:40:30.657Z,100996.81
2023-01-06T10:43:12.382Z,100998.16
2023-01-06T10:45:47.707Z,100992.78
2023-01-06T10:48:30.995Z,100991.84
2023-01-06T10:51:40.724Z,100993.91
2023-01-06T10:54:24.119Z,100985.78
2023-01-06T10:57:04.516Z,100986.22
2023-01-06T10:59:33.224Z,100982.47
2023-01-06T11:02:03.326Z,100979.91
2023-01-06T11:04:33.651Z,100980.53
2023-01-06T11:07:04.310Z,100989.03
2023-01-06T11:09:43.317Z,100980.66
2023-01-06T11:12:28.838Z,100978.94
2023-01-06T11:15:07.179Z,100982.50
2023-01-06T11:17:37.253Z,100967.78
2023-01-06T11:20:14.058Z,100961.84
2023-01-06T11:22:45.918Z,100967.34
2023-01-06T11:25:21.267Z,100957.34
2023-01-06T11:28:09.707Z,100943.59
2023-01-06T11:30:52.726Z,100955.25
2023-01-06T11:33:27.218Z,100954.44
2023-01-06T11:35:57.152Z,100948.75
2023-01-06T11:38:26.142Z,100948.34
2023-01-06T11:40:54.917Z,100939.94
2023-01-06T11:43:33.709Z,100949.13
2023-01-06T11:46:10.912Z,100951.16
2023-01-06T11:49:24.642Z,100946.69
2023-01-06T11:52:24.685Z,100937.47
2023-01-06T11:55:20.666Z,100939.09
2023-01-06T11:58:19.853Z,100935.28
2023-01-06T12:01:09.667Z,100950.50
2023-01-06T12:03:46.276Z,100944.44
2023-01-06T12:06:42.590Z,100938.09
2023-01-06T12:09:21.598Z,100925.03
2023-01-06T12:11:56.520Z,100918.78
2023-01-06T12:14:37.499Z,100924.50
2023-01-06T12:17:34.712Z,100924.31
2023-01-06T12:20:33.815Z,100918.28
2023-01-06T12:23:43.008Z,100910.28
2023-01-06T12:26:25.169Z,100906.91
2023-01-06T12:29:00.501Z,100897.47
2023-01-06T12:31:51.619Z,100905.88
2023-01-06T12:34:37.796Z,100900.44
2023-01-06T12:37:27.667Z,100901.09
2023-01-06T12:40:23.651Z,100893.06
2023-01-06T12:43:17.132Z,100890.00
2023-01-06T12:46:04.629Z,100894.47
2023-01-06T12:48:47.041Z,100888.25
2023-01-06T12:51:39.264Z,100889.16
2023-01-06T12:54:32.491Z,100890.00
2023-01-06T12:57:19.922Z,100885.72
2023-01-06T13:00:46.139Z,100891.41
2023-01-06T13:04:15.347Z,100889.97
2023-01-06T13:07:10.789Z,100889.94
2023-01-06T13:10:30.662Z,100893.50
2023-01-06T13:14:02.471Z,100890.03
2023-01-06T13:16:56.279Z,100894.66
2023-01-06T13:19:55.573Z,100898.91
2023-01-06T13:23:17.715Z,100905.25
2023-01-06T13:26:06.428Z,100905.09
2023-01-06T13:29:16.443Z,100895.47
2023-01-06T13:32:41.257Z,100902.59
2023-01-06T13:36:00.018Z,100901.88
2023-01-06T13:38:46.234Z,100903.41
2023-01-06T13:41:29.805Z,100911.28
2023-01-06T13:44:05.165Z,100909.84
2023-01-06T13:46:36.715Z,100915.50
2023-01-06T13:49:08.104Z,100917.53
2023-01-06T13:51:44.361Z,100918.41
2023-01-06T13:54:39.338Z,100909.41
2023-01-06T13:57:43.841Z,100918.44
2023-01-06T14:00:30.969Z,100928.13
2023-01-06T14:03:21.836Z,100929.91
2023-01-06T14:05:55.544Z,100933.53
2023-01-06T14:08:34.197Z,100941.22
2023-01-06T14:11:21.518Z,100935.63
2023-01-06T14:14:20.142Z,100934.97
2023-01-06T14:16:54.420Z,100948.13
2023-01-06T14:19:37.214Z,100951.91
2023-01-06T14:22:21.814Z,100947.63
2023-01-06T14:25:09.008Z,100957.38
2023-01-06T14:27:46.025Z,100964.22
2023-01-06T14:30:33.407Z,100964.50
2023-01-06T14:33:37.132Z,100956.19
2023-01-06T14:36:17.969Z,100957.66
2023-01-06T14:39:02.414Z,100959.91
2023-01-06T14:41:46.127Z,100968.41
2023-01-06T14:44:51.987Z,100967.94
2023-01-06T14:47:46.169Z,100964.31
2023-01-06T14:50:47.049Z,100968.41
2023-01-06T14:53:42.931Z,100970.97
2023-01-06T14:56:27.631Z,100973.34
2023-01-06T14:59:15.527Z,100973.94
2023-01-06T15:02:01.676Z,100977.56
2023-01-06T15:04:35.983Z,100968.75
2023-01-06T15:07:22.202Z,100978.06
2023-01-06T15:09:52.505Z,100972.13
2023-01-06T15:12:32.788Z,100982.16
2023-01-06T15:15:34.006Z,100984.94
2023-01-06T15:18:03.339Z,100981.44
2023-01-06T15:20:43.386Z,100985.25
2023-01-06T15:23:20.572Z,100984.41
2023-01-06T15:25:54.991Z,100999.56
2023-01-06T15:28:34.213Z,101004.69
2023-01-06T15:31:04.016Z,101007.13
2023-01-06T15:33:42.458Z,101019.84
2023-01-06T15:36:23.705Z,101013.41
2023-01-06T15:39:01.182Z,101016.06
2023-01-06T15:41:34.157Z,101019.63
2023-01-06T15:44:27.940Z,101023.28
2023-01-06T15:47:12.589Z,101032.53
2023-01-06T15:50:02.432Z,101036.09
2023-01-06T15:52:48.631Z,101032.88
2023-01-06T15:55:34.522Z,101047.41
2023-01-06T15:58:17.968Z,101043.53
2023-01-06T16:01:12.346Z,101045.13
2023-01-06T16:03:55.939Z,101046.31
2023-01-06T16:06:40.873Z,101048.03
2023-01-06T16:09:20.787Z,101046.47
2023-01-06T16:12:21.833Z,101048.72
2023-01-06T16:14:52.091Z,101058.97
2023-01-06T16:17:32.176Z,101058.50
2023-01-06T16:20:24.714Z,101067.53
2023-01-06T16:22:56.357Z,101066.84
2023-01-06T16:25:35.464Z,101066.19
2023-01-06T16:28:05.928Z,101069.25
2023-01-06T16:30:38.199Z,101068.81
2023-01-06T16:33:48.243Z,101077.16
2023-01-06T16:36:18.457Z,101072.16
2023-01-06T16:38:48.252Z,101072.41
2023-01-06T16:41:19.644Z,101073.97
2023-01-06T16:43:48.024Z,101081.66
2023-01-06T16:46:28.048Z,101083.97
2023-01-06T16:49:05.769Z,101087.50
2023-01-06T16:51:35.887Z,101085.09
2023-01-06T16:54:11.258Z,101086.34
2023-01-06T16:56:41.358Z,101083.16
2023-01-06T16:59:18.333Z,101087.34
2023-01-06T17:01:48.749Z,101089.63
2023-01-06T17:04:18.992Z,101095.13
2023-01-06T17:06:49.050Z,101096.97
2023-01-06T17:09:23.217Z,101099.72
2023-01-06T17:11:54.276Z,101108.66
2023-01-06T17:14:23.648Z,101099.31
2023-01-06T17:16:53.574Z,101109.84
2023-01-06T17:19:42.162Z,101113.53
2023-01-06T17:22:32.202Z,101121.13
2023-01-06T17:25:13.909Z,101128.66
2023-01-06T17:27:48.332Z,101126.72
2023-01-06T17:30:20.071Z,101139.28
2023-01-06T17:32:49.298Z,101136.53
2023-01-06T17:35:29.822Z,101141.94
2023-01-06T17:38:24.174Z,101144.09
2023-01-06T17:40:55.007Z,101150.81
2023-01-06T17:43:37.113Z,101150.03
2023-01-06T17:46:33.599Z,101155.97
2023-01-06T17:49:17.889Z,101156.91
2023-01-06T17:51:52.047Z,101156.94
2023-01-06T17:54:42.261Z,101156.19
2023-01-06T17:57:20.035Z,101160.75
2023-01-06T17:59:56.455Z,101169.38
2023-01-06T18:03:06.663Z,101168.91
2023-01-06T18:05:36.556Z,101170.88
2023-01-06T18:08:06.515Z,101166.16
2023-01-06T18:10:57.411Z,101172.75
2023-01-06T18:13:40.045Z,101180.47
2023-01-06T18:16:32.064Z,101189.63
2023-01-06T18:19:34.407Z,101184.38
2023-01-06T18:22:23.759Z,101185.78
2023-01-06T18:25:01.040Z,101193.47
2023-01-06T18:27:35.081Z,101194.13
2023-01-06T18:30:28.580Z,101183.44
2023-01-06T18:32:58.208Z,101188.44
2023-01-06T18:35:29.022Z,101180.47
2023-01-06T18:38:03.578Z,101183.78
2023-01-06T18:40:38.378Z,101177.16
2023-01-06T18:43:30.145Z,101179.69
2023-01-06T18:46:14.602Z,101182.19
2023-01-06T18:48:45.919Z,101188.00
2023-01-06T18:51:27.427Z,101191.03
2023-01-06T18:53:54.404Z,101191.56
2023-01-06T18:56:27.173Z,101193.53
2023-01-06T18:59:00.042Z,101185.81
2023-01-06T19:01:47.296Z,101191.03
2023-01-06T19:04:31.334Z,101193.84
2023-01-06T19:07:28.537Z,101195.78
2023-01-06T19:09:58.912Z,101192.25
2023-01-06T19:12:33.604Z,101198.94
2023-01-06T19:15:26.241Z,101197.84
2023-01-06T19:17:56.368Z,101200.63
2023-01-06T19:20:28.939Z,101203.63
2023-01-06T19:22:57.775Z,101207.16
2023-01-06T19:25:40.848Z,101209.38
2023-01-06T19:28:23.933Z,101214.59
2023-01-06T19:31:01.251Z,101214.34
2023-01-06T19:34:00.765Z,101214.03
2023-01-06T19:36:49.289Z,101220.31
2023-01-06T19:39:38.708Z,101221.72
2023-01-06T19:42:27.259Z,101223.94
2023-01-06T19:45:27.267Z,101234.31
2023-01-06T19:48:00.690Z,101225.47
2023-01-06T19:50:30.695Z,101225.75
2023-01-06T19:53:00.798Z,101224.66
2023-01-06T19:55:33.354Z,101231.22
2023-01-06T19:58:28.661Z,101231.53
2023-01-06T20:00:59.584Z,101233.47
2023-01-06T20:03:43.241Z,101234.88
2023-01-06T20:06:16.631Z,101237.84
2023-01-06T20:08:52.292Z,101243.44
2023-01-06T20:11:24.775Z,101249.00
2023-01-06T20:13:55.136Z,101241.63
2023-01-06T20:16:25.228Z,101242.47
2023-01-06T20:18:53.672Z,101252.69
2023-01-06T20:21:22.024Z,101257.13
2023-01-06T20:23:50.698Z,101250.22
2023-01-06T20:26:18.894Z,101257.38
2023-01-06T20:28:47.959Z,101257.66
2023-01-06T20:31:16.495Z,101260.44
2023-01-06T20:33:44.206Z,101266.22
2023-01-06T20:36:17.293Z,101259.63
2023-01-06T20:38:47.508Z,101260.19
2023-01-06T20:41:18.396Z,101253.00
2023-01-06T20:43:49.086Z,101258.81
2023-01-06T20:46:19.199Z,101262.94
2023-01-06T20:48:49.401Z,101255.50
2023-01-06T20:51:19.399Z,101255.78
2023-01-06T20:53:49.433Z,101249.47
2023-01-06T20:56:19.477Z,101255.25
2023-01-06T20:58:49.570Z,101268.16
2023-01-06T21:01:19.699Z,101259.88
2023-01-06T21:03:49.926Z,101261.81
2023-01-06T21:06:20.027Z,101258.44
2023-01-06T21:08:50.143Z,101258.72
2023-01-06T21:11:20.144Z,101270.59
2023-01-06T21:13:50.122Z,101272.81
2023-01-06T21:16:21.669Z,101273.09
2023-01-06T21:18:51.731Z,101276.38
2023-01-06T21:21:21.792Z,101279.97
2023-01-06T21:23:51.793Z,101281.63
2023-01-06T21:26:21.808Z,101271.16
2023-01-06T21:28:51.857Z,101279.16
2023-01-06T21:31:22.583Z,101275.31
2023-01-06T21:33:52.595Z,101267.84
2023-01-06T21:36:22.700Z,101267.56
2023-01-06T21:38:52.739Z,101275.28
2023-01-06T21:41:41.371Z,101278.63
2023-01-06T21:44:11.939Z,101277.47
2023-01-06T21:46:41.995Z,101280.78
2023-01-06T21:49:12.445Z,101270.88
2023-01-06T21:51:42.759Z,101276.94
2023-01-06T21:54:12.796Z,101276.69
2023-01-06T21:56:43.045Z,101281.09
2023-01-06T21:59:13.401Z,101282.75
2023-01-06T22:01:43.845Z,101283.31
2023-01-06T22:04:13.999Z,101291.81
2023-01-06T22:06:46.070Z,101291.84
2023-01-06T22:09:22.858Z,101282.78
2023-01-06T22:11:55.701Z,101291.56
2023-01-06T22:14:26.532Z,101292.97
2023-01-06T22:17:00.341Z,101280.00
2023-01-06T22:19:32.150Z,101291.03
2023-01-06T22:22:04.661Z,101283.03
2023-01-06T22:24:36.529Z,101292.13
2023-01-06T22:27:06.672Z,101292.66
2023-01-06T22:29:36.743Z,101285.50
2023-01-06T22:32:07.383Z,101282.50
2023-01-06T22:34:37.444Z,101285.78
2023-01-06T22:37:05.934Z,101287.97
2023-01-06T22:39:34.358Z,101297.34
2023-01-06T22:42:02.940Z,101294.88
2023-01-06T22:44:31.136Z,101293.50
2023-01-06T22:46:59.568Z,101296.78
2023-01-06T22:49:28.369Z,101292.09
2023-01-06T22:51:56.800Z,101299.25
2023-01-06T22:54:25.260Z,101300.34
2023-01-06T22:56:53.683Z,101303.41
2023-01-06T22:59:22.138Z,101296.25
2023-01-06T23:01:50.653Z,101296.78
2023-01-06T23:04:18.983Z,101305.03
2023-01-06T23:06:47.482Z,101291.56
2023-01-06T23:09:17.509Z,101296.25
2023-01-06T23:11:47.301Z,101288.28
2023-01-06T23:14:16.334Z,101284.16
2023-01-06T23:16:45.348Z,101296.78
2023-01-06T23:19:16.561Z,101289.63
2023-01-06T23:21:46.592Z,101288.81
2023-01-06T23:24:16.690Z,101286.31
2023-01-06T23:26:48.556Z,101279.13
2023-01-06T23:29:18.729Z,101279.41
2023-01-06T23:31:48.763Z,101276.63
2023-01-06T23:34:19.010Z,101276.91
2023-01-06T23:36:50.094Z,101273.59
2023-01-06T23:39:20.313Z,101274.66
2023-01-06T23:41:50.503Z,101289.75
2023-01-06T23:44:20.954Z,101288.63
2023-01-06T23:46:50.978Z,101295.19
2023-01-06T23:49:21.110Z,101292.69
2023-01-06T23:51:51.139Z,101296.75
2023-01-06T23:54:21.318Z,101292.31
2023-01-06T23:56:51.340Z,101293.13
2023-01-06T23:59:21.323Z,101293.09
